Share

Beef Island, British Virgin Islands

2:24 PM AST on April 23, 2014 (GMT -0400)
Beef I International (TUPJ) Elev 13 ft | 18.44 °N, 64.54 °W | Change Station

Current weather conditions updated 24 minutes ago

Scattered Clouds
Scattered Clouds
86 °F
Feels Like 95 °F
N
8
Wind Variable Wind from SSW
Sunrise 5:55 AM
Sunset 6:37 PM
Moon Waning Crescent

Today is forecast to be nearly the same temperature as yesterday.

Pressure 29.98 in
Visibility 6.2 miles
Clouds Scattered Clouds 1900 ft
Heat Index 95 °F
Dew Point 75 °F
Humidity 70%
Rainfall 0.00 in
Snow Depth Not available.
UV 8 out of 16
Pollen Not available.
Air Quality Not available.
Flu Activity Not available.
METAR TUPJ 231800Z 20007KT 9999 SCT019 30/24 Q1015 RMK A2997

More Conditions Fewer Conditions

Pressure 29.98 in
Visibility 6.2 miles
Clouds Scattered Clouds 1900 ft
Heat Index 95 °F
Dew Point 75 °F
Humidity 70%
Rainfall 0.00 in
Snow Depth Not available.
UV 8 out of 16
Pollen Not available.
Air Quality Not available.
Flu Activity Not available.
METAR TUPJ 231800Z 20007KT 9999 SCT019 30/24 Q1015 RMK A2997

More Conditions Fewer Conditions

10-Day Weather Forecast

Almanac

Astronomy

Apr. 23, 2014 Rise Set
Actual Time 5:55 AM AST 6:37 PM AST
Civil Twilight 5:33 AM AST 6:59 PM AST
Nautical Twilight 5:06 AM AST 7:26 PM AST
Astronomical Twilight 4:40 AM AST 7:53 PM AST
Moon 1:33 AM AST 1:29 PM AST
Length of Visible Light 13h 26m
Length of Day
12h 41m
Tomorrow will be 0m 57s longer.
Waning Crescent, 34% of the Moon is Illuminated
Today
Waning Crescent
Apr 29
New
May 6
First Quarter
May 14
Full
May 21
Last Quarter

Today's Extremes

Country Highs Country Lows

Community

  • Stunning Sunrise
    Stunning Sunrise
  • spring flowers
    spring flowers
  • Earth Day Spectrum Ove' Blue
    Earth Day Spectrum Ove' Blue
  • BARN B&W
    BARN B&W
  • April Sunset
    April Sunset

WunderPhotos

Upload Photos

1,704,362 photos uploaded!

WunderBlogs® & News

Nearby

Snow Depth

Not available.

Coastal Water Temperatures

Place Temperature
No Stations Reporting

Earthquake Activity

City Distance Mag. Time & Date
No recent earthquake activity has been reported nearby.
Minimum magnitude displayed is 2.5.

Nearby Weather Stations

Station Location Temp. Heat Index Dew Point Humidity Wind Precip. Elev Updated Type
Estate Bethany 81.8 °F 88 °F 75 °F 80% SSW  at  8.0 mph 0.00 in / hr 443 ft 2:20 PM AST Normal
Great Cruz Bay, St John, St John 87.0 °F 99 °F 77 °F 72% SW  at  4.0 mph 0.00 in / hr 59 ft 2:24 PM AST Normal

Show More Stations Show Fewer Stations

What do you think?

We're not finished. Please let us know what you like, what you don't like, and what you are still missing.